Time,TemperatureF,DewpointF,PressureIn,WindDirection,WindDirectionDegrees,WindSpeedMPH,WindSpeedGustMPH,Humidity,HourlyPrecipIn,Conditions,Clouds,dailyrainin,SoftwareType,DateUTC
2013-06-01 00:01:00,46.0,16.0,30.20,WSW,246,5.0,9.0,29,0.00,,,0.00,,2013-06-01 06:01:00,
2013-06-01 00:12:00,47.0,16.0,30.20,WSW,248,4.0,7.0,28,0.00,,,0.00,,2013-06-01 06:12:00,
2013-06-01 00:22:00,47.0,16.0,30.20,WSW,248,4.0,7.0,28,0.00,,,0.00,,2013-06-01 06:22:00,
2013-06-01 00:32:00,47.0,15.0,30.20,WSW,251,6.0,8.0,27,0.00,,,0.00,,2013-06-01 06:32:00,
2013-06-01 00:41:00,47.0,16.0,30.20,WSW,256,6.0,10.0,28,0.00,,,0.00,,2013-06-01 06:41:00,
2013-06-01 00:52:00,47.0,16.0,30.20,WSW,256,6.0,10.0,28,0.00,,,0.00,,2013-06-01 06:52:00,
2013-06-01 01:01:00,47.0,16.0,30.20,WSW,240,5.0,8.0,29,0.00,,,0.00,,2013-06-01 07:01:00,
2013-06-01 01:11:00,47.0,16.0,30.20,WSW,240,5.0,8.0,29,0.00,,,0.00,,2013-06-01 07:11:00,
2013-06-01 01:21:00,47.0,19.0,30.20,WSW,248,7.0,10.0,32,0.00,,,0.00,,2013-06-01 07:21:00,
2013-06-01 01:31:00,47.0,19.0,30.20,WSW,255,7.0,12.0,32,0.00,,,0.00,,2013-06-01 07:31:00,
2013-06-01 01:41:00,46.0,19.0,30.20,West,259,6.0,10.0,34,0.00,,,0.00,,2013-06-01 07:41:00,
2013-06-01 01:52:00,46.0,19.0,30.20,West,259,6.0,10.0,34,0.00,,,0.00,,2013-06-01 07:52:00,
2013-06-01 02:01:00,46.0,20.0,30.20,WSW,257,7.0,13.0,35,0.00,,,0.00,,2013-06-01 08:01:00,
2013-06-01 02:11:00,46.0,21.0,30.20,West,262,8.0,11.0,36,0.00,,,0.00,,2013-06-01 08:11:00,
2013-06-01 02:21:00,46.0,21.0,30.20,West,262,8.0,11.0,36,0.00,,,0.00,,2013-06-01 08:21:00,
2013-06-01 02:32:00,46.0,20.0,30.20,WSW,249,9.0,12.0,35,0.00,,,0.00,,2013-06-01 08:32:00,
2013-06-01 02:42:00,46.0,21.0,30.20,WSW,246,4.0,8.0,37,0.00,,,0.00,,2013-06-01 08:42:00,
2013-06-01 02:52:00,46.0,21.0,30.20,WSW,246,4.0,8.0,37,0.00,,,0.00,,2013-06-01 08:52:00,
2013-06-01 03:01:00,45.0,22.0,30.20,WSW,257,3.0,5.0,39,0.00,,,0.00,,2013-06-01 09:01:00,
2013-06-01 03:12:00,45.0,22.0,30.20,WSW,257,3.0,5.0,39,0.00,,,0.00,,2013-06-01 09:12:00,
2013-06-01 03:21:00,45.0,22.0,30.20,WSW,257,0.0,3.0,40,0.00,,,0.00,,2013-06-01 09:21:00,
2013-06-01 03:32:00,44.0,22.0,30.20,WSW,257,2.0,3.0,42,0.00,,,0.00,,2013-06-01 09:32:00,
2013-06-01 03:42:00,44.0,22.0,30.20,WSW,257,2.0,3.0,42,0.00,,,0.00,,2013-06-01 09:42:00,
2013-06-01 03:53:00,45.0,23.0,30.20,WSW,257,3.0,4.0,41,0.00,,,0.00,,2013-06-01 09:53:00,
2013-06-01 04:02:00,44.0,22.0,30.20,WSW,257,4.0,6.0,42,0.00,,,0.00,,2013-06-01 10:02:00,
2013-06-01 04:32:00,44.0,22.0,30.19,WSW,247,4.0,6.0,41,0.00,,,0.00,,2013-06-01 10:32:00,
2013-06-01 04:42:00,44.0,23.0,30.20,WSW,238,5.0,7.0,43,0.00,,,0.00,,2013-06-01 10:42:00,
2013-06-01 04:52:00,44.0,23.0,30.20,WSW,238,5.0,7.0,43,0.00,,,0.00,,2013-06-01 10:52:00,
2013-06-01 05:02:00,44.0,23.0,30.19,WSW,239,2.0,4.0,43,0.00,,,0.00,,2013-06-01 11:02:00,
2013-06-01 05:21:00,44.0,22.0,30.20,WSW,239,3.0,4.0,41,0.00,,,0.00,,2013-06-01 11:21:00,
2013-06-01 05:32:00,44.0,22.0,30.20,WSW,239,0.0,0.0,41,0.00,,,0.00,,2013-06-01 11:32:00,
2013-06-01 05:42:00,44.0,22.0,30.20,WSW,239,0.0,0.0,41,0.00,,,0.00,,2013-06-01 11:42:00,
2013-06-01 05:52:00,43.0,22.0,30.20,WSW,239,0.0,0.0,43,0.00,,,0.00,,2013-06-01 11:52:00,
2013-06-01 06:01:00,44.0,22.0,30.20,WSW,239,0.0,1.0,42,0.00,,,0.00,,2013-06-01 12:01:00,
2013-06-01 06:32:00,45.0,23.0,30.19,WSW,239,0.0,1.0,41,0.00,,,0.00,,2013-06-01 12:32:00,
2013-06-01 06:41:00,45.0,24.0,30.19,WSW,239,0.0,1.0,43,0.00,,,0.00,,2013-06-01 12:41:00,
2013-06-01 07:01:00,45.0,24.0,30.19,WSW,239,2.0,2.0,43,0.00,,,0.00,,2013-06-01 13:01:00,
2013-06-01 07:22:00,45.0,24.0,30.19,WSW,239,1.0,3.0,43,0.00,,,0.00,,2013-06-01 13:22:00,
2013-06-01 07:32:00,46.0,25.0,30.20,WSW,239,0.0,1.0,43,0.00,,,0.00,,2013-06-01 13:32:00,
2013-06-01 07:42:00,49.0,28.0,30.20,WSW,239,2.0,4.0,44,0.00,,,0.00,,2013-06-01 13:42:00,
2013-06-01 08:01:00,50.0,28.0,30.20,WSW,239,1.0,4.0,43,0.00,,,0.00,,2013-06-01 14:01:00,
2013-06-01 08:32:00,51.0,28.0,30.20,East,85,5.0,8.0,40,0.00,,,0.00,,2013-06-01 14:32:00,
2013-06-01 08:42:00,51.0,28.0,30.20,East,85,5.0,8.0,40,0.00,,,0.00,,2013-06-01 14:42:00,
2013-06-01 08:52:00,51.0,26.0,30.21,East,81,5.0,8.0,38,0.00,,,0.00,,2013-06-01 14:52:00,
2013-06-01 09:01:00,53.0,27.0,30.21,ENE,75,1.0,5.0,37,0.00,,,0.00,,2013-06-01 15:01:00,
2013-06-01 09:33:00,53.0,26.0,30.21,South,175,3.0,8.0,35,0.00,,,0.00,,2013-06-01 15:33:00,
2013-06-01 09:42:00,53.0,26.0,30.21,South,175,3.0,8.0,35,0.00,,,0.00,,2013-06-01 15:42:00,
2013-06-01 09:53:00,53.0,26.0,30.21,South,174,2.0,6.0,35,0.00,,,0.00,,2013-06-01 15:53:00,
2013-06-01 10:03:00,53.0,29.0,30.20,West,267,3.0,6.0,39,0.00,,,0.00,,2013-06-01 16:03:00,
2013-06-01 10:12:00,53.0,29.0,30.20,West,267,3.0,6.0,39,0.00,,,0.00,,2013-06-01 16:12:00,
2013-06-01 10:23:00,54.0,27.0,30.20,SW,225,3.0,8.0,35,0.00,,,0.00,,2013-06-01 16:23:00,
2013-06-01 10:33:00,55.0,26.0,30.20,SW,224,1.0,6.0,32,0.00,,,0.00,,2013-06-01 16:33:00,
2013-06-01 10:42:00,55.0,33.0,30.20,WSW,253,6.0,9.0,43,0.00,,,0.00,,2013-06-01 16:42:00,
2013-06-01 10:52:00,55.0,33.0,30.20,WSW,253,6.0,9.0,43,0.00,,,0.00,,2013-06-01 16:52:00,
2013-06-01 11:02:00,55.0,32.0,30.19,WNW,293,5.0,8.0,41,0.00,,,0.00,,2013-06-01 17:02:00,
2013-06-01 11:11:00,55.0,32.0,30.19,WNW,293,5.0,8.0,41,0.00,,,0.00,,2013-06-01 17:11:00,
2013-06-01 11:21:00,56.0,33.0,30.19,WSW,249,5.0,13.0,42,0.00,,,0.00,,2013-06-01 17:21:00,
2013-06-01 11:32:00,57.0,30.0,30.19,SW,228,6.0,11.0,35,0.00,,,0.00,,2013-06-01 17:32:00,
2013-06-01 11:42:00,57.0,30.0,30.19,SW,228,6.0,11.0,35,0.00,,,0.00,,2013-06-01 17:42:00,
2013-06-01 11:52:00,58.0,33.0,30.19,West,262,8.0,12.0,39,0.00,,,0.00,,2013-06-01 17:52:00,
2013-06-01 12:01:00,58.0,31.0,30.19,West,261,4.0,12.0,35,0.00,,,0.00,,2013-06-01 18:01:00,
2013-06-01 12:11:00,58.0,31.0,30.19,West,261,4.0,12.0,35,0.00,,,0.00,,2013-06-01 18:11:00,
2013-06-01 12:21:00,58.0,32.0,30.19,WSW,244,5.0,9.0,37,0.00,,,0.00,,2013-06-01 18:21:00,
2013-06-01 12:32:00,59.0,28.0,30.18,WSW,242,6.0,11.0,31,0.00,,,0.00,,2013-06-01 18:32:00,
2013-06-01 12:41:00,59.0,28.0,30.18,WSW,242,6.0,11.0,31,0.00,,,0.00,,2013-06-01 18:41:00,
2013-06-01 12:52:00,60.0,36.0,30.17,West,277,3.0,10.0,40,0.00,,,0.00,,2013-06-01 18:52:00,
2013-06-01 13:01:00,61.0,31.0,30.17,WSW,243,4.0,7.0,32,0.00,,,0.00,,2013-06-01 19:01:00,
2013-06-01 13:11:00,61.0,29.0,30.16,SSE,150,4.0,8.0,30,0.00,,,0.00,,2013-06-01 19:11:00,
2013-06-01 13:21:00,61.0,29.0,30.16,SSE,150,4.0,8.0,30,0.00,,,0.00,,2013-06-01 19:21:00,
2013-06-01 13:32:00,61.0,28.0,30.16,ESE,119,7.0,14.0,28,0.00,,,0.00,,2013-06-01 19:32:00,
2013-06-01 13:41:00,61.0,28.0,30.16,ESE,119,7.0,14.0,28,0.00,,,0.00,,2013-06-01 19:41:00,
2013-06-01 13:52:00,62.0,28.0,30.15,ESE,109,4.0,9.0,27,0.00,,,0.00,,2013-06-01 19:52:00,
2013-06-01 14:01:00,63.0,29.0,30.15,South,180,5.0,9.0,28,0.00,,,0.00,,2013-06-01 20:01:00,
2013-06-01 14:11:00,63.0,29.0,30.15,South,180,5.0,9.0,28,0.00,,,0.00,,2013-06-01 20:11:00,
2013-06-01 14:21:00,63.0,29.0,30.15,SSE,159,8.0,13.0,28,0.00,,,0.00,,2013-06-01 20:21:00,
2013-06-01 14:32:00,63.0,31.0,30.14,SE,138,9.0,15.0,30,0.00,,,0.00,,2013-06-01 20:32:00,
2013-06-01 14:41:00,63.0,29.0,30.14,SSE,152,7.0,13.0,28,0.00,,,0.00,,2013-06-01 20:41:00,
2013-06-01 14:52:00,63.0,29.0,30.14,SSE,152,7.0,13.0,28,0.00,,,0.00,,2013-06-01 20:52:00,
2013-06-01 15:01:00,63.0,28.0,30.14,East,99,7.0,12.0,26,0.00,,,0.00,,2013-06-01 21:01:00,
2013-06-01 15:11:00,65.0,32.0,30.13,SE,145,9.0,15.0,29,0.00,,,0.00,,2013-06-01 21:11:00,
2013-06-01 15:21:00,65.0,32.0,30.13,SE,145,9.0,15.0,29,0.00,,,0.00,,2013-06-01 21:21:00,
2013-06-01 15:33:00,65.0,37.0,30.12,West,266,5.0,14.0,35,0.00,,,0.00,,2013-06-01 21:33:00,
2013-06-01 15:42:00,65.0,37.0,30.12,West,266,5.0,14.0,35,0.00,,,0.00,,2013-06-01 21:42:00,
2013-06-01 15:53:00,64.0,31.0,30.12,WSW,248,6.0,13.0,29,0.00,,,0.00,,2013-06-01 21:53:00,
2013-06-01 16:02:00,66.0,34.0,30.11,WSW,240,6.0,12.0,31,0.00,,,0.00,,2013-06-01 22:02:00,
2013-06-01 16:12:00,66.0,34.0,30.11,SSW,192,5.0,10.0,31,0.00,,,0.00,,2013-06-01 22:12:00,
2013-06-01 16:23:00,66.0,34.0,30.11,SSW,192,5.0,10.0,31,0.00,,,0.00,,2013-06-01 22:23:00,
2013-06-01 16:33:00,65.0,30.0,30.11,SSW,198,3.0,5.0,27,0.00,,,0.00,,2013-06-01 22:33:00,
2013-06-01 16:42:00,65.0,31.0,30.10,WSW,240,8.0,14.0,28,0.00,,,0.00,,2013-06-01 22:42:00,
2013-06-01 16:53:00,65.0,31.0,30.10,WSW,240,8.0,14.0,28,0.00,,,0.00,,2013-06-01 22:53:00,
2013-06-01 17:01:00,66.0,33.0,30.10,SW,233,3.0,9.0,29,0.00,,,0.00,,2013-06-01 23:01:00,
2013-06-01 17:11:00,66.0,34.0,30.09,West,260,7.0,12.0,30,0.00,,,0.00,,2013-06-01 23:11:00,
2013-06-01 17:21:00,66.0,34.0,30.09,West,260,7.0,12.0,30,0.00,,,0.00,,2013-06-01 23:21:00,
2013-06-01 17:32:00,66.0,33.0,30.09,SW,224,4.0,11.0,29,0.00,,,0.00,,2013-06-01 23:32:00,
2013-06-01 17:42:00,66.0,33.0,30.09,SW,224,4.0,11.0,29,0.00,,,0.00,,2013-06-01 23:42:00,
2013-06-01 17:52:00,67.0,34.0,30.09,West,260,4.0,9.0,29,0.00,,,0.00,,2013-06-01 23:52:00,
2013-06-01 18:01:00,66.0,32.0,30.08,WNW,290,5.0,12.0,28,0.00,,,0.00,,2013-06-02 00:01:00,
2013-06-01 18:11:00,66.0,32.0,30.08,WNW,290,5.0,12.0,28,0.00,,,0.00,,2013-06-02 00:11:00,
2013-06-01 18:21:00,67.0,30.0,30.07,WSW,254,5.0,8.0,25,0.00,,,0.00,,2013-06-02 00:21:00,
2013-06-01 18:31:00,66.0,31.0,30.07,WSW,258,6.0,12.0,27,0.00,,,0.00,,2013-06-02 00:31:00,
2013-06-01 18:41:00,66.0,31.0,30.07,WSW,258,6.0,12.0,27,0.00,,,0.00,,2013-06-02 00:41:00,
2013-06-01 18:52:00,66.0,34.0,30.06,West,262,5.0,9.0,31,0.00,,,0.00,,2013-06-02 00:52:00,
2013-06-01 19:01:00,66.0,33.0,30.06,WNW,287,2.0,8.0,29,0.00,,,0.00,,2013-06-02 01:01:00,
2013-06-01 19:11:00,66.0,33.0,30.06,WNW,287,2.0,8.0,29,0.00,,,0.00,,2013-06-02 01:11:00,
2013-06-01 19:21:00,66.0,32.0,30.05,WNW,286,4.0,7.0,28,0.00,,,0.00,,2013-06-02 01:21:00,
2013-06-01 19:32:00,65.0,31.0,30.05,WNW,288,4.0,8.0,28,0.00,,,0.00,,2013-06-02 01:32:00,
2013-06-01 19:41:00,65.0,31.0,30.05,WNW,288,4.0,8.0,28,0.00,,,0.00,,2013-06-02 01:41:00,
2013-06-01 19:52:00,65.0,33.0,30.05,WNW,294,4.0,6.0,30,0.00,,,0.00,,2013-06-02 01:52:00,
2013-06-01 20:01:00,64.0,32.0,30.05,NE,49,1.0,4.0,30,0.00,,,0.00,,2013-06-02 02:01:00,
2013-06-01 20:12:00,64.0,32.0,30.05,NE,49,1.0,4.0,30,0.00,,,0.00,,2013-06-02 02:12:00,
2013-06-01 20:21:00,63.0,28.0,30.04,SSE,151,4.0,7.0,26,0.00,,,0.00,,2013-06-02 02:21:00,
2013-06-01 20:32:00,62.0,28.0,30.04,SE,133,6.0,12.0,27,0.00,,,0.00,,2013-06-02 02:32:00,
2013-06-01 20:41:00,62.0,28.0,30.04,SE,133,6.0,12.0,27,0.00,,,0.00,,2013-06-02 02:41:00,
2013-06-01 20:52:00,61.0,28.0,30.04,SE,132,5.0,9.0,28,0.00,,,0.00,,2013-06-02 02:52:00,
2013-06-01 21:01:00,60.0,27.0,30.05,ESE,121,8.0,10.0,28,0.00,,,0.00,,2013-06-02 03:01:00,
2013-06-01 21:11:00,60.0,27.0,30.05,ESE,121,8.0,10.0,28,0.00,,,0.00,,2013-06-02 03:11:00,
2013-06-01 21:21:00,59.0,27.0,30.04,ESE,120,7.0,10.0,29,0.00,,,0.00,,2013-06-02 03:21:00,
2013-06-01 21:33:00,58.0,26.0,30.04,SE,124,6.0,11.0,29,0.00,,,0.00,,2013-06-02 03:33:00,
2013-06-01 21:43:00,58.0,26.0,30.04,SE,124,6.0,11.0,29,0.00,,,0.00,,2013-06-02 03:43:00,
2013-06-01 21:53:00,58.0,26.0,30.04,SE,140,5.0,8.0,29,0.00,,,0.00,,2013-06-02 03:53:00,
2013-06-01 22:02:00,57.0,26.0,30.04,ESE,117,7.0,9.0,30,0.00,,,0.00,,2013-06-02 04:02:00,
2013-06-01 22:12:00,57.0,26.0,30.04,ESE,117,7.0,9.0,30,0.00,,,0.00,,2013-06-02 04:12:00,
2013-06-01 22:23:00,57.0,26.0,30.04,ESE,114,8.0,10.0,30,0.00,,,0.00,,2013-06-02 04:23:00,
2013-06-01 22:32:00,57.0,27.0,30.04,ESE,123,11.0,14.0,31,0.00,,,0.00,,2013-06-02 04:32:00,
2013-06-01 22:42:00,57.0,27.0,30.04,ESE,123,11.0,14.0,31,0.00,,,0.00,,2013-06-02 04:42:00,
2013-06-01 22:53:00,57.0,28.0,30.04,ESE,118,12.0,15.0,33,0.00,,,0.00,,2013-06-02 04:53:00,
2013-06-01 23:02:00,57.0,27.0,30.04,SE,130,13.0,19.0,31,0.00,,,0.00,,2013-06-02 05:02:00,
2013-06-01 23:11:00,57.0,27.0,30.04,SE,130,13.0,19.0,31,0.00,,,0.00,,2013-06-02 05:11:00,
2013-06-01 23:22:00,57.0,27.0,30.03,ESE,120,12.0,18.0,31,0.00,,,0.00,,2013-06-02 05:22:00,
2013-06-01 23:32:00,57.0,27.0,30.03,ESE,122,11.0,18.0,31,0.00,,,0.00,,2013-06-02 05:32:00,
2013-06-01 23:42:00,57.0,27.0,30.03,ESE,122,11.0,18.0,31,0.00,,,0.00,,2013-06-02 05:42:00,
2013-06-01 23:52:00,57.0,26.0,30.03,ESE,120,12.0,17.0,30,0.00,,,0.00,,2013-06-02 05:52:00,